Time;durP1;ratioP1;P1;durP2;ratioP2;P2;SDS_P1;SDS_P2;PMS_P1;PMS_P2;Temp;Humidity;BMP_temperature;BMP_pressure;BME280_temperature;BME280_humidity;BME280_pressure;Samples;Min_cycle;Max_cycle;Signal;HPM_P1;HPM_P2
2021/12/16 00:08:51;;;;;;;33.67;14.77;;;;;;;;;;5006724;28;20081;-62
2021/12/16 00:33:16;;;;;;;29.15;14.38;;;;;;;;;;5013574;28;20045;-62
2021/12/16 00:35:44;;;;;;;33.95;15.05;;;;;;;;;;5013433;28;20184;-62
2021/12/16 00:38:10;;;;;;;34.50;14.07;;;;;;;;;;5021879;28;20100;-62
2021/12/16 00:40:40;;;;;;;30.50;14.25;;;;;;;;;;5006718;28;20045;-63
2021/12/16 00:43:55;;;;;;;32.10;13.40;;;;;;;;;;5005026;28;20069;-62
2021/12/16 00:54:14;;;;;;;30.50;14.45;;;;;;;;;;5014709;28;20073;-63
2021/12/16 00:56:40;;;;;;;38.67;15.45;;;;;;;;;;5020281;28;20181;-62
2021/12/16 00:59:09;;;;;;;36.25;15.25;;;;;;;;;;5006253;28;20056;-63
2021/12/16 01:33:30;;;;;;;35.50;15.60;;;;;;;;;;5004970;28;20042;-62
2021/12/16 01:46:10;;;;;;;33.25;16.33;;;;;;;;;;4972208;28;20129;-62
2021/12/16 01:51:16;;;;;;;38.05;16.15;;;;;;;;;;5009665;28;20080;-62
2021/12/16 01:56:43;;;;;;;36.53;16.48;;;;;;;;;;5024564;28;20133;-61
2021/12/16 01:59:16;;;;;;;39.05;16.42;;;;;;;;;;5007146;28;20088;-62
2021/12/16 02:01:42;;;;;;;40.88;16.95;;;;;;;;;;4992132;28;20070;-61
2021/12/16 02:04:19;;;;;;;40.63;17.38;;;;;;;;;;5007770;28;20420;-62
2021/12/16 02:07:03;;;;;;;35.55;17.08;;;;;;;;;;5009649;28;20399;-62
2021/12/16 02:09:34;;;;;;;;;;;;;;;;;;5009250;28;20104;-62
2021/12/16 02:12:12;;;;;;;40.10;17.42;;;;;;;;;;5007948;28;19921;-61
2021/12/16 02:28:48;;;;;;;39.38;19.00;;;;;;;;;;5015176;28;20484;-62
2021/12/16 02:38:54;;;;;;;51.60;21.55;;;;;;;;;;5008482;28;20048;-62
2021/12/16 02:41:21;;;;;;;40.88;19.42;;;;;;;;;;5008732;28;20052;-61
2021/12/16 02:49:16;;;;;;;41.63;17.90;;;;;;;;;;5015795;28;20046;-62
2021/12/16 02:51:42;;;;;;;40.35;18.23;;;;;;;;;;5006705;28;20080;-62
2021/12/16 02:54:09;;;;;;;40.25;19.20;;;;;;;;;;5006877;28;20046;-61
2021/12/16 02:56:36;;;;;;;34.75;17.75;;;;;;;;;;5007285;28;20660;-62
2021/12/16 02:59:04;;;;;;;34.88;17.35;;;;;;;;;;5006997;28;20050;-62
2021/12/16 03:01:36;;;;;;;39.97;18.40;;;;;;;;;;5008661;28;20407;-62
2021/12/16 03:04:04;;;;;;;35.13;17.50;;;;;;;;;;5009000;28;20057;-62
2021/12/16 03:06:31;;;;;;;42.85;17.67;;;;;;;;;;5007880;28;20076;-61
2021/12/16 03:08:58;;;;;;;34.95;16.58;;;;;;;;;;5008990;28;20041;-62
2021/12/16 03:12:05;;;;;;;37.60;16.95;;;;;;;;;;5006314;28;20053;-61
2021/12/16 03:19:20;;;;;;;33.85;16.35;;;;;;;;;;5007486;28;20049;-61
2021/12/16 03:21:52;;;;;;;40.42;15.93;;;;;;;;;;5006767;28;20492;-61
2021/12/16 03:27:38;;;;;;;38.97;16.55;;;;;;;;;;5006801;28;20088;-62
2021/12/16 03:35:01;;;;;;;37.83;16.60;;;;;;;;;;5008130;28;20053;-62
2021/12/16 03:37:28;;;;;;;40.50;16.08;;;;;;;;;;5022592;28;20388;-62
2021/12/16 03:40:00;;;;;;;37.08;15.93;;;;;;;;;;5008352;28;20465;-62
2021/12/16 03:42:29;;;;;;;43.65;16.55;;;;;;;;;;5021061;28;20038;-62
2021/12/16 03:45:00;;;;;;;40.13;16.42;;;;;;;;;;5008274;28;20045;-62
2021/12/16 03:47:39;;;;;;;32.83;16.20;;;;;;;;;;5006651;28;20069;-62
2021/12/16 03:50:07;;;;;;;33.88;15.55;;;;;;;;;;5016215;28;20042;-62
2021/12/16 03:52:33;;;;;;;41.22;16.00;;;;;;;;;;5007193;28;20069;-62
2021/12/16 03:55:00;;;;;;;38.03;16.27;;;;;;;;;;5006597;28;20194;-62
2021/12/16 03:57:27;;;;;;;44.53;18.10;;;;;;;;;;5006250;28;20057;-62
2021/12/16 03:59:53;;;;;;;33.95;15.80;;;;;;;;;;5005068;28;20061;-62
2021/12/16 04:02:23;;;;;;;34.47;16.25;;;;;;;;;;5006654;28;20053;-62
2021/12/16 04:04:51;;;;;;;41.60;18.38;;;;;;;;;;5007818;28;20496;-61
2021/12/16 04:07:19;;;;;;;43.78;16.25;;;;;;;;;;5007138;28;20366;-61
2021/12/16 04:09:46;;;;;;;34.65;15.43;;;;;;;;;;5007502;28;20050;-62
2021/12/16 04:12:14;;;;;;;37.58;15.77;;;;;;;;;;5006460;28;20088;-61
2021/12/16 04:14:41;;;;;;;49.97;16.98;;;;;;;;;;5007874;28;20081;-61
2021/12/16 04:17:08;;;;;;;43.67;18.67;;;;;;;;;;5005953;28;21343;-62
2021/12/16 04:19:35;;;;;;;41.33;17.08;;;;;;;;;;5005745;28;20056;-62
2021/12/16 04:22:04;;;;;;;39.85;17.48;;;;;;;;;;4989207;28;20052;-62
2021/12/16 04:24:30;;;;;;;43.20;18.08;;;;;;;;;;5006019;28;20127;-61
2021/12/16 04:26:57;;;;;;;44.45;19.20;;;;;;;;;;5006166;28;20057;-61
2021/12/16 04:29:24;;;;;;;39.40;17.33;;;;;;;;;;5006599;28;20173;-62
2021/12/16 04:31:51;;;;;;;39.42;18.77;;;;;;;;;;5007224;28;20045;-61
2021/12/16 04:34:18;;;;;;;42.55;17.48;;;;;;;;;;5007241;28;20038;-61
2021/12/16 04:36:44;;;;;;;43.88;19.20;;;;;;;;;;5006902;28;20400;-61
2021/12/16 04:39:13;;;;;;;45.28;18.40;;;;;;;;;;5005176;28;20025;-62
2021/12/16 04:41:40;;;;;;;39.35;17.58;;;;;;;;;;5005122;28;20046;-62
2021/12/16 04:44:08;;;;;;;48.00;20.33;;;;;;;;;;5005561;28;20124;-62
2021/12/16 04:46:34;;;;;;;44.83;19.10;;;;;;;;;;5005489;28;20052;-62
2021/12/16 04:49:01;;;;;;;32.83;18.33;;;;;;;;;;5006872;28;20038;-63
2021/12/16 04:51:29;;;;;;;45.55;21.00;;;;;;;;;;5005662;28;20483;-62
2021/12/16 04:53:55;;;;;;;40.72;19.27;;;;;;;;;;5006889;28;20046;-62
2021/12/16 04:56:22;;;;;;;52.55;22.27;;;;;;;;;;5005627;28;20058;-61
2021/12/16 04:58:50;;;;;;;43.05;19.83;;;;;;;;;;5009370;28;20448;-63
2021/12/16 05:01:16;;;;;;;48.15;21.13;;;;;;;;;;5011889;28;20037;-62
2021/12/16 05:03:43;;;;;;;45.35;20.70;;;;;;;;;;5013665;28;20045;-62
2021/12/16 05:06:09;;;;;;;41.75;19.30;;;;;;;;;;5012061;28;20038;-62
2021/12/16 05:08:36;;;;;;;41.30;20.58;;;;;;;;;;5012305;28;20042;-62
2021/12/16 05:11:04;;;;;;;44.20;20.17;;;;;;;;;;5011737;28;20069;-62
2021/12/16 05:13:31;;;;;;;47.55;19.58;;;;;;;;;;5011261;28;20046;-62
2021/12/16 05:16:02;;;;;;;41.55;19.20;;;;;;;;;;5013108;28;20064;-62
2021/12/16 05:18:34;;;;;;;43.67;19.38;;;;;;;;;;5028224;28;20103;-62
2021/12/16 05:21:15;;;;;;;50.13;21.17;;;;;;;;;;5010292;28;20064;-62
2021/12/16 05:26:40;;;;;;;45.08;21.00;;;;;;;;;;4990240;28;20077;-62
2021/12/16 05:29:06;;;;;;;42.72;19.75;;;;;;;;;;5012455;28;20034;-62
2021/12/16 05:31:32;;;;;;;41.08;19.08;;;;;;;;;;5012689;28;20041;-62
2021/12/16 05:33:59;;;;;;;45.40;21.33;;;;;;;;;;5011881;28;20046;-62
2021/12/16 05:36:25;;;;;;;49.72;21.40;;;;;;;;;;5021276;28;20045;-62
2021/12/16 05:38:51;;;;;;;48.85;21.38;;;;;;;;;;5013093;28;20095;-62
2021/12/16 05:41:18;;;;;;;54.72;22.85;;;;;;;;;;5011520;28;20037;-62
2021/12/16 05:43:45;;;;;;;53.08;20.80;;;;;;;;;;5012662;28;20037;-62
2021/12/16 05:46:12;;;;;;;44.08;20.13;;;;;;;;;;4992630;28;20049;-62
2021/12/16 05:48:40;;;;;;;45.60;19.10;;;;;;;;;;5011704;28;20060;-62
2021/12/16 05:51:14;;;;;;;47.28;19.52;;;;;;;;;;5012712;28;20052;-62
2021/12/16 05:53:41;;;;;;;46.47;19.38;;;;;;;;;;5011317;28;20042;-63
2021/12/16 05:56:07;;;;;;;39.65;19.77;;;;;;;;;;5011770;28;20049;-62
2021/12/16 05:58:33;;;;;;;54.28;21.95;;;;;;;;;;5012170;28;20061;-62
2021/12/16 06:01:06;;;;;;;47.47;20.67;;;;;;;;;;5011335;28;20060;-63
2021/12/16 06:03:32;;;;;;;46.45;19.95;;;;;;;;;;5012431;28;20034;-62
2021/12/16 06:05:58;;;;;;;43.90;22.10;;;;;;;;;;5011596;28;20046;-62
2021/12/16 06:08:25;;;;;;;61.60;23.83;;;;;;;;;;5012815;28;20080;-62
2021/12/16 06:13:34;;;;;;;49.33;22.85;;;;;;;;;;5018549;28;20050;-61
2021/12/16 06:29:36;;;;;;;55.97;24.30;;;;;;;;;;5006902;28;20064;-62
2021/12/16 06:32:02;;;;;;;56.25;24.38;;;;;;;;;;5008529;28;20049;-63
2021/12/16 06:34:28;;;;;;;57.55;25.65;;;;;;;;;;4992515;28;20496;-62
2021/12/16 06:36:55;;;;;;;60.00;26.30;;;;;;;;;;5008820;28;20132;-62
2021/12/16 06:39:21;;;;;;;60.72;24.73;;;;;;;;;;5006232;28;20044;-62
2021/12/16 06:41:47;;;;;;;62.72;26.15;;;;;;;;;;5008055;28;20030;-62
2021/12/16 06:44:41;;;;;;;62.55;26.27;;;;;;;;;;5009307;28;20148;-62
2021/12/16 06:47:06;;;;;;;69.22;27.50;;;;;;;;;;5024311;28;20045;-63
2021/12/16 06:49:34;;;;;;;59.90;26.63;;;;;;;;;;5016858;28;20407;-62
2021/12/16 06:52:04;;;;;;;71.68;30.50;;;;;;;;;;4990932;28;20172;-63
2021/12/16 06:54:53;;;;;;;71.78;28.88;;;;;;;;;;5008093;28;20050;-62
2021/12/16 06:57:23;;;;;;;72.75;32.03;;;;;;;;;;5013450;28;20085;-62
2021/12/16 07:02:57;;;;;;;64.03;27.60;;;;;;;;;;5009565;28;20046;-62
2021/12/16 07:05:25;;;;;;;67.70;30.00;;;;;;;;;;5008621;28;20068;-63
2021/12/16 07:07:55;;;;;;;65.68;29.35;;;;;;;;;;5010469;28;20412;-61
2021/12/16 07:10:22;;;;;;;68.25;30.35;;;;;;;;;;5010153;28;20570;-61
2021/12/16 07:12:49;;;;;;;65.22;29.25;;;;;;;;;;5000974;28;20046;-62
2021/12/16 07:15:40;;;;;;;68.88;28.08;;;;;;;;;;5011013;28;20116;-62
2021/12/16 07:18:06;;;;;;;73.90;31.08;;;;;;;;;;5008629;28;20037;-62
2021/12/16 07:20:33;;;;;;;62.40;28.98;;;;;;;;;;5009491;28;20100;-62
2021/12/16 07:23:00;;;;;;;64.88;30.25;;;;;;;;;;5009180;28;20041;-62
2021/12/16 07:25:27;;;;;;;54.40;25.98;;;;;;;;;;5009038;28;20048;-62
2021/12/16 07:27:54;;;;;;;68.25;29.20;;;;;;;;;;5009719;28;20069;-62
2021/12/16 07:30:22;;;;;;;56.47;28.17;;;;;;;;;;5009484;28;20069;-63
2021/12/16 07:32:48;;;;;;;78.82;35.72;;;;;;;;;;5009605;28;20403;-63
2021/12/16 07:35:18;;;;;;;70.10;31.58;;;;;;;;;;5007372;28;20042;-62
2021/12/16 07:37:44;;;;;;;73.18;32.70;;;;;;;;;;5008067;28;20441;-62
2021/12/16 07:40:12;;;;;;;64.28;28.35;;;;;;;;;;5008919;28;20044;-62
2021/12/16 07:43:00;;;;;;;63.75;28.40;;;;;;;;;;5007825;28;20045;-62
2021/12/16 07:45:27;;;;;;;73.57;32.83;;;;;;;;;;5009064;28;20117;-62
2021/12/16 07:47:53;;;;;;;74.32;33.25;;;;;;;;;;5010027;28;20378;-63
2021/12/16 07:50:19;;;;;;;80.70;36.47;;;;;;;;;;5008835;28;20053;-62
2021/12/16 07:52:45;;;;;;;63.30;30.88;;;;;;;;;;5008922;28;20037;-62
2021/12/16 07:55:13;;;;;;;74.82;33.00;;;;;;;;;;4992529;28;20069;-62
2021/12/16 07:57:42;;;;;;;76.82;32.63;;;;;;;;;;5010327;28;20113;-62
2021/12/16 08:00:13;;;;;;;61.65;29.33;;;;;;;;;;5008799;28;20108;-62
2021/12/16 08:02:40;;;;;;;88.07;34.90;;;;;;;;;;5009075;28;20056;-62
2021/12/16 08:05:07;;;;;;;69.05;28.55;;;;;;;;;;5008997;28;20510;-62
2021/12/16 08:07:33;;;;;;;83.93;35.75;;;;;;;;;;5009833;28;20034;-63
2021/12/16 08:10:00;;;;;;;84.72;34.45;;;;;;;;;;5007317;28;20050;-63
2021/12/16 08:12:26;;;;;;;99.20;36.88;;;;;;;;;;5015361;28;20037;-63
2021/12/16 08:14:52;;;;;;;84.55;33.03;;;;;;;;;;5008113;28;20037;-63
2021/12/16 08:17:18;;;;;;;93.55;35.25;;;;;;;;;;5007600;28;20049;-63
2021/12/16 08:19:45;;;;;;;109.43;36.90;;;;;;;;;;5008380;28;20037;-63
2021/12/16 08:22:12;;;;;;;108.68;37.42;;;;;;;;;;5006659;28;20453;-63
2021/12/16 08:24:38;;;;;;;108.53;34.40;;;;;;;;;;5008429;28;20038;-63
2021/12/16 08:27:05;;;;;;;103.07;36.10;;;;;;;;;;5008267;28;20435;-63
2021/12/16 08:29:31;;;;;;;136.05;39.78;;;;;;;;;;5007403;28;20045;-62
2021/12/16 08:31:57;;;;;;;144.80;42.22;;;;;;;;;;5015583;28;20128;-63
2021/12/16 08:34:25;;;;;;;134.90;39.00;;;;;;;;;;5007333;28;20573;-63
2021/12/16 08:36:51;;;;;;;152.52;43.13;;;;;;;;;;5006963;28;20129;-61
2021/12/16 08:39:17;;;;;;;150.30;42.45;;;;;;;;;;5022923;28;20042;-61
2021/12/16 08:41:46;;;;;;;146.25;42.83;;;;;;;;;;5007522;28;20038;-61
2021/12/16 08:44:12;;;;;;;138.25;38.28;;;;;;;;;;5006880;28;20128;-61
2021/12/16 08:46:40;;;;;;;125.93;36.47;;;;;;;;;;5007666;28;20107;-61
2021/12/16 08:49:07;;;;;;;135.40;42.25;;;;;;;;;;5008474;28;20191;-61
2021/12/16 08:51:35;;;;;;;121.15;38.00;;;;;;;;;;4987897;28;20100;-61
2021/12/16 08:54:01;;;;;;;118.50;36.70;;;;;;;;;;5007418;28;20160;-61
2021/12/16 08:56:27;;;;;;;142.95;42.40;;;;;;;;;;5006715;28;20050;-61
2021/12/16 08:58:57;;;;;;;145.23;44.70;;;;;;;;;;5008066;28;20392;-61
2021/12/16 09:01:24;;;;;;;152.50;43.28;;;;;;;;;;5007733;28;20370;-61
2021/12/16 09:03:51;;;;;;;203.15;48.92;;;;;;;;;;5008032;28;20049;-61
2021/12/16 09:06:18;;;;;;;206.32;49.90;;;;;;;;;;5008815;28;20139;-62
2021/12/16 09:08:44;;;;;;;150.60;44.53;;;;;;;;;;5008416;28;20038;-61
2021/12/16 09:11:13;;;;;;;189.30;46.15;;;;;;;;;;5009446;28;20131;-61
2021/12/16 09:13:41;;;;;;;143.25;39.90;;;;;;;;;;5009422;28;20042;-61
2021/12/16 09:16:10;;;;;;;137.45;40.75;;;;;;;;;;5009185;28;20085;-61
2021/12/16 09:18:41;;;;;;;184.38;48.17;;;;;;;;;;5009694;28;20084;-61
2021/12/16 09:21:08;;;;;;;199.10;49.35;;;;;;;;;;5008131;28;20559;-61
2021/12/16 09:23:34;;;;;;;161.38;40.97;;;;;;;;;;5009349;28;20074;-61
2021/12/16 09:26:00;;;;;;;161.35;40.97;;;;;;;;;;5009422;28;20492;-61
2021/12/16 09:28:27;;;;;;;143.57;37.65;;;;;;;;;;5009560;28;20046;-61
2021/12/16 09:30:54;;;;;;;167.13;44.63;;;;;;;;;;5008025;28;20092;-61
2021/12/16 09:33:22;;;;;;;147.27;39.83;;;;;;;;;;5007534;28;20038;-61
2021/12/16 09:35:51;;;;;;;158.45;41.88;;;;;;;;;;5009237;28;20050;-61
2021/12/16 09:38:17;;;;;;;150.68;38.10;;;;;;;;;;5009175;28;20125;-61
2021/12/16 09:40:49;;;;;;;144.73;38.10;;;;;;;;;;5007705;28;20050;-61
2021/12/16 09:43:16;;;;;;;144.77;38.83;;;;;;;;;;5008703;28;20041;-61
2021/12/16 09:45:42;;;;;;;147.68;38.83;;;;;;;;;;5011186;28;20065;-61
2021/12/16 09:48:08;;;;;;;170.40;42.13;;;;;;;;;;5012852;28;20170;-61
2021/12/16 09:50:35;;;;;;;177.50;42.90;;;;;;;;;;5011426;28;20041;-61
2021/12/16 09:53:01;;;;;;;137.95;35.63;;;;;;;;;;5012797;28;20385;-61
2021/12/16 09:55:29;;;;;;;175.60;42.35;;;;;;;;;;5012346;28;20050;-61
2021/12/16 09:57:55;;;;;;;201.07;40.70;;;;;;;;;;5012551;28;20068;-61
2021/12/16 10:00:23;;;;;;;190.07;43.05;;;;;;;;;;5011764;28;20060;-61
2021/12/16 10:02:51;;;;;;;201.27;42.03;;;;;;;;;;5027863;28;20242;-61
2021/12/16 10:05:17;;;;;;;185.25;45.85;;;;;;;;;;5012452;28;20492;-61
2021/12/16 10:07:43;;;;;;;268.98;50.83;;;;;;;;;;5027755;28;20042;-61
2021/12/16 10:10:12;;;;;;;208.88;44.83;;;;;;;;;;5012809;28;20053;-61
2021/12/16 10:12:43;;;;;;;268.52;51.00;;;;;;;;;;5011244;28;20400;-62
2021/12/16 10:18:17;;;;;;;212.02;43.95;;;;;;;;;;5009311;28;20125;-62
2021/12/16 10:20:55;;;;;;;217.45;45.67;;;;;;;;;;5009748;28;20522;-61
2021/12/16 10:23:21;;;;;;;181.05;43.05;;;;;;;;;;5001467;28;20052;-61
2021/12/16 10:25:49;;;;;;;185.10;39.97;;;;;;;;;;5011212;28;20041;-61
2021/12/16 10:28:16;;;;;;;196.23;41.03;;;;;;;;;;5010908;28;20054;-60
2021/12/16 10:31:04;;;;;;;188.77;40.13;;;;;;;;;;5012125;28;20077;-61
2021/12/16 10:33:39;;;;;;;176.82;41.33;;;;;;;;;;5012134;28;20061;-61
2021/12/16 10:36:28;;;;;;;188.68;41.95;;;;;;;;;;5027201;28;20053;-61
2021/12/16 10:38:55;;;;;;;181.15;42.33;;;;;;;;;;5008832;28;20351;-61
2021/12/16 10:41:27;;;;;;;253.25;50.45;;;;;;;;;;5011654;28;20045;-61
2021/12/16 10:43:55;;;;;;;269.08;54.47;;;;;;;;;;5012043;28;20042;-61
2021/12/16 10:46:26;;;;;;;249.00;52.35;;;;;;;;;;5011621;28;20038;-61
2021/12/16 10:49:00;;;;;;;304.83;57.00;;;;;;;;;;5012151;28;20085;-61
2021/12/16 10:51:29;;;;;;;250.38;53.65;;;;;;;;;;5011621;28;20034;-61
2021/12/16 10:53:58;;;;;;;198.82;45.75;;;;;;;;;;5011511;28;20049;-61
2021/12/16 10:56:30;;;;;;;190.00;44.63;;;;;;;;;;5009654;28;20061;-61
2021/12/16 10:58:57;;;;;;;;;;;;;;;;;;5011981;28;20508;-61
2021/12/16 11:01:42;;;;;;;229.48;46.28;;;;;;;;;;5010134;28;19971;-61
2021/12/16 11:04:31;;;;;;;176.20;43.38;;;;;;;;;;5011463;28;20050;-61
2021/12/16 11:07:00;;;;;;;218.40;51.10;;;;;;;;;;5008410;28;20050;-61
2021/12/16 11:09:43;;;;;;;169.13;41.40;;;;;;;;;;5011104;28;20069;-61
2021/12/16 11:12:12;;;;;;;226.63;47.45;;;;;;;;;;5011329;28;20045;-61
2021/12/16 11:14:39;;;;;;;272.60;52.47;;;;;;;;;;5010057;28;20054;-61
2021/12/16 11:17:06;;;;;;;169.63;43.83;;;;;;;;;;5009622;28;20046;-61
2021/12/16 11:19:38;;;;;;;193.60;41.67;;;;;;;;;;5011166;28;20078;-61
2021/12/16 11:22:06;;;;;;;253.93;50.60;;;;;;;;;;5026524;28;20168;-60
2021/12/16 11:24:32;;;;;;;193.55;44.38;;;;;;;;;;5011237;28;20045;-61
2021/12/16 11:26:58;;;;;;;194.18;45.20;;;;;;;;;;5011056;28;20041;-61
2021/12/16 11:29:31;;;;;;;252.93;49.03;;;;;;;;;;5009354;28;20053;-61
2021/12/16 11:31:57;;;;;;;249.88;48.10;;;;;;;;;;5009820;28;20042;-61
2021/12/16 11:34:23;;;;;;;215.18;45.88;;;;;;;;;;5009282;28;20045;-61
2021/12/16 11:36:53;;;;;;;263.08;49.90;;;;;;;;;;5010976;28;20131;-61
2021/12/16 11:39:27;;;;;;;224.02;46.72;;;;;;;;;;5009689;28;20042;-61
2021/12/16 11:41:56;;;;;;;176.10;37.60;;;;;;;;;;5010734;28;20068;-61
2021/12/16 11:44:24;;;;;;;186.93;40.55;;;;;;;;;;5010530;28;20096;-61
2021/12/16 11:46:53;;;;;;;243.43;45.03;;;;;;;;;;5025651;28;20095;-60
2021/12/16 11:49:26;;;;;;;313.08;53.38;;;;;;;;;;5010321;28;20075;-61
2021/12/16 11:52:04;;;;;;;225.90;47.83;;;;;;;;;;5009454;28;20622;-61
2021/12/16 11:54:30;;;;;;;176.20;45.03;;;;;;;;;;5010403;28;20531;-61
2021/12/16 11:57:12;;;;;;;227.20;46.58;;;;;;;;;;5010291;28;20526;-61
2021/12/16 11:59:43;;;;;;;144.52;36.58;;;;;;;;;;5025439;28;20486;-61
2021/12/16 12:02:21;;;;;;;194.05;37.28;;;;;;;;;;5010346;28;20038;-61
2021/12/16 12:04:47;;;;;;;140.32;32.92;;;;;;;;;;5010353;28;20053;-61
2021/12/16 12:07:15;;;;;;;152.20;35.92;;;;;;;;;;5009327;28;20049;-60
2021/12/16 12:09:44;;;;;;;187.23;36.97;;;;;;;;;;5010029;28;20449;-61
2021/12/16 12:12:10;;;;;;;168.93;40.53;;;;;;;;;;5010299;28;20428;-61
2021/12/16 12:14:38;;;;;;;181.98;34.65;;;;;;;;;;5010035;28;20068;-63
2021/12/16 12:17:20;;;;;;;166.82;36.22;;;;;;;;;;5008590;28;20515;-60
2021/12/16 12:19:51;;;;;;;162.10;34.85;;;;;;;;;;5008924;28;20058;-60
2021/12/16 12:22:26;;;;;;;174.70;33.22;;;;;;;;;;5009990;28;20053;-61
2021/12/16 12:24:52;;;;;;;254.20;44.08;;;;;;;;;;5009679;28;20044;-61
2021/12/16 12:27:23;;;;;;;191.48;39.03;;;;;;;;;;5024999;28;20412;-61
2021/12/16 12:29:50;;;;;;;213.05;38.65;;;;;;;;;;5010251;28;20459;-61
2021/12/16 12:32:20;;;;;;;155.88;31.42;;;;;;;;;;5010146;28;20815;-61
2021/12/16 12:34:48;;;;;;;162.13;35.58;;;;;;;;;;5009928;28;20081;-61
2021/12/16 12:37:16;;;;;;;182.10;39.95;;;;;;;;;;5008192;28;20034;-61
2021/12/16 12:39:44;;;;;;;156.25;38.25;;;;;;;;;;5010099;28;20097;-61
2021/12/16 12:42:11;;;;;;;143.27;41.85;;;;;;;;;;5008448;28;20120;-61
2021/12/16 12:44:37;;;;;;;119.55;38.78;;;;;;;;;;5009806;28;20512;-61
2021/12/16 12:47:07;;;;;;;89.40;35.38;;;;;;;;;;5009491;28;20068;-61
2021/12/16 12:49:33;;;;;;;87.45;36.00;;;;;;;;;;5008291;28;20081;-61
2021/12/16 12:52:19;;;;;;;62.75;26.80;;;;;;;;;;5009670;28;20639;-61
2021/12/16 12:54:47;;;;;;;66.50;28.73;;;;;;;;;;5009578;28;20052;-61
2021/12/16 12:57:33;;;;;;;48.38;23.35;;;;;;;;;;5009166;28;20546;-61
2021/12/16 13:00:00;;;;;;;53.92;24.95;;;;;;;;;;5009829;28;20045;-61
2021/12/16 13:02:33;;;;;;;43.63;23.05;;;;;;;;;;5008307;28;20431;-61
2021/12/16 13:05:08;;;;;;;37.35;21.13;;;;;;;;;;5009708;28;20439;-61
2021/12/16 13:07:34;;;;;;;34.63;19.38;;;;;;;;;;5024940;28;20045;-61
2021/12/16 13:10:04;;;;;;;35.05;18.42;;;;;;;;;;5008485;28;20184;-61
2021/12/16 13:15:33;;;;;;;34.58;19.17;;;;;;;;;;5009017;28;20046;-61
2021/12/16 13:23:37;;;;;;;46.40;21.60;;;;;;;;;;5010856;28;20045;-62
2021/12/16 13:26:34;;;;;;;52.20;22.38;;;;;;;;;;5010860;28;20053;-61
2021/12/16 13:29:04;;;;;;;57.60;25.70;;;;;;;;;;5010442;28;20057;-61
2021/12/16 13:32:05;;;;;;;66.30;25.88;;;;;;;;;;4991998;28;20058;-61
2021/12/16 13:34:35;;;;;;;80.78;32.00;;;;;;;;;;4993549;28;20109;-61
2021/12/16 13:37:11;;;;;;;70.90;29.58;;;;;;;;;;4992448;28;20038;-61
2021/12/16 13:39:41;;;;;;;73.60;32.92;;;;;;;;;;5010154;28;20041;-61
2021/12/16 13:42:12;;;;;;;81.78;35.42;;;;;;;;;;5011358;28;20555;-62
2021/12/16 13:44:47;;;;;;;79.65;37.15;;;;;;;;;;5011445;28;20058;-61
2021/12/16 14:04:03;;;;;;;163.47;48.17;;;;;;;;;;5014782;28;20046;-62
2021/12/16 14:06:54;;;;;;;141.00;43.45;;;;;;;;;;5011827;28;20336;-62
2021/12/16 14:09:27;;;;;;;113.65;38.95;;;;;;;;;;5011801;28;20041;-62
2021/12/16 14:17:40;;;;;;;182.77;45.63;;;;;;;;;;5008741;28;20129;-62
2021/12/16 14:23:14;;;;;;;163.43;48.00;;;;;;;;;;5007761;28;20354;-62
2021/12/16 14:26:10;;;;;;;147.77;45.15;;;;;;;;;;5010254;28;20177;-62
2021/12/16 14:37:02;;;;;;;125.82;42.45;;;;;;;;;;5010596;28;20061;-62
2021/12/16 14:42:08;;;;;;;144.13;45.07;;;;;;;;;;5009133;28;20054;-62
2021/12/16 14:49:48;;;;;;;134.73;44.42;;;;;;;;;;5010574;28;20053;-61
2021/12/16 14:52:15;;;;;;;125.60;41.47;;;;;;;;;;5010756;28;20089;-61
2021/12/16 14:54:49;;;;;;;122.88;41.60;;;;;;;;;;5010613;28;20042;-61
2021/12/16 14:57:20;;;;;;;138.57;46.45;;;;;;;;;;5023444;28;20193;-61
2021/12/16 14:59:46;;;;;;;132.57;42.88;;;;;;;;;;5011691;28;20400;-62
2021/12/16 15:02:14;;;;;;;173.18;48.00;;;;;;;;;;5010340;28;20038;-62
2021/12/16 15:04:40;;;;;;;171.80;45.47;;;;;;;;;;5012184;28;20091;-62
2021/12/16 15:07:10;;;;;;;179.82;46.33;;;;;;;;;;5009776;28;20054;-62
2021/12/16 15:09:39;;;;;;;168.32;42.00;;;;;;;;;;5009180;28;20050;-62
2021/12/16 15:12:13;;;;;;;181.13;45.67;;;;;;;;;;5009899;28;20046;-62
2021/12/16 15:45:00;;;;;;;291.60;49.53;;;;;;;;;;5007959;28;20096;-62
2021/12/16 15:47:27;;;;;;;341.50;53.47;;;;;;;;;;5008834;28;20484;-62
2021/12/16 15:49:53;;;;;;;328.75;52.22;;;;;;;;;;5007190;28;20046;-63
2021/12/16 15:52:19;;;;;;;355.05;55.67;;;;;;;;;;5008970;28;20045;-63
2021/12/16 15:54:50;;;;;;;243.57;47.15;;;;;;;;;;4991387;28;20099;-63
2021/12/16 15:57:18;;;;;;;202.55;42.45;;;;;;;;;;5008607;28;20115;-62
2021/12/16 15:59:48;;;;;;;181.48;42.13;;;;;;;;;;5006531;28;20049;-63
2021/12/16 16:02:16;;;;;;;315.95;52.03;;;;;;;;;;5007806;28;20048;-63
2021/12/16 16:04:42;;;;;;;270.25;51.05;;;;;;;;;;5008697;28;20034;-63
2021/12/16 16:07:12;;;;;;;256.33;49.30;;;;;;;;;;5008333;28;20073;-63
2021/12/16 16:09:40;;;;;;;186.32;41.50;;;;;;;;;;5007529;28;20613;-63
2021/12/16 16:12:09;;;;;;;265.88;47.45;;;;;;;;;;5006821;28;20046;-63
2021/12/16 16:14:37;;;;;;;258.15;51.17;;;;;;;;;;5005767;28;20573;-62
2021/12/16 16:17:12;;;;;;;274.55;51.75;;;;;;;;;;5019777;28;20478;-63
2021/12/16 16:19:38;;;;;;;216.75;47.63;;;;;;;;;;5006611;28;20465;-63
2021/12/16 16:22:05;;;;;;;201.07;42.53;;;;;;;;;;5008885;28;20040;-63
2021/12/16 16:24:33;;;;;;;220.05;45.33;;;;;;;;;;5006596;28;20052;-62
2021/12/16 16:27:02;;;;;;;206.75;44.47;;;;;;;;;;5001973;28;20081;-62
2021/12/16 16:29:29;;;;;;;252.00;50.25;;;;;;;;;;5005510;28;20549;-63
2021/12/16 16:31:56;;;;;;;314.88;55.90;;;;;;;;;;5005051;28;20081;-64
2021/12/16 16:34:28;;;;;;;253.15;49.83;;;;;;;;;;5004709;28;20397;-63
2021/12/16 16:37:00;;;;;;;320.83;59.17;;;;;;;;;;5006934;28;20038;-64
2021/12/16 16:39:28;;;;;;;207.48;47.38;;;;;;;;;;5019658;28;20116;-63
2021/12/16 16:41:56;;;;;;;195.13;43.47;;;;;;;;;;5005540;28;20725;-63
2021/12/16 16:44:24;;;;;;;170.85;41.65;;;;;;;;;;5007050;28;20515;-62
2021/12/16 16:47:02;;;;;;;166.02;39.83;;;;;;;;;;5006354;28;20124;-63
2021/12/16 16:49:30;;;;;;;161.30;40.40;;;;;;;;;;5006226;28;20129;-63
2021/12/16 16:51:58;;;;;;;168.52;43.22;;;;;;;;;;5007662;28;20096;-62
2021/12/16 16:54:27;;;;;;;133.13;36.83;;;;;;;;;;5005857;28;20056;-62
2021/12/16 16:57:00;;;;;;;183.35;43.08;;;;;;;;;;5006466;28;20058;-63
2021/12/16 16:59:26;;;;;;;131.15;35.40;;;;;;;;;;5005943;28;20408;-63
2021/12/16 17:01:52;;;;;;;136.10;37.08;;;;;;;;;;5006274;28;20116;-62
2021/12/16 17:04:19;;;;;;;122.53;35.20;;;;;;;;;;5005221;28;20037;-62
2021/12/16 17:06:47;;;;;;;108.50;32.17;;;;;;;;;;5007312;28;20404;-62
2021/12/16 17:09:13;;;;;;;92.68;30.02;;;;;;;;;;5007061;28;20346;-62
2021/12/16 17:11:50;;;;;;;83.68;27.55;;;;;;;;;;5007704;28;20045;-61
2021/12/16 17:14:18;;;;;;;67.47;24.15;;;;;;;;;;5007732;28;20033;-63
2021/12/16 17:19:37;;;;;;;57.30;22.58;;;;;;;;;;5012524;28;20714;-63
2021/12/16 17:22:10;;;;;;;45.88;20.48;;;;;;;;;;5004740;28;20509;-63
2021/12/16 17:24:36;;;;;;;51.28;21.30;;;;;;;;;;5005950;28;20582;-63
2021/12/16 17:27:05;;;;;;;43.80;19.52;;;;;;;;;;5005895;28;20057;-62
2021/12/16 17:29:34;;;;;;;41.00;17.73;;;;;;;;;;5005757;28;20399;-63
2021/12/16 17:32:00;;;;;;;36.30;17.92;;;;;;;;;;5005851;28;20038;-62
2021/12/16 17:34:29;;;;;;;40.38;19.88;;;;;;;;;;5007147;28;20050;-64
2021/12/16 17:36:59;;;;;;;35.97;18.20;;;;;;;;;;5004150;28;20548;-63
2021/12/16 17:39:27;;;;;;;35.45;18.48;;;;;;;;;;5004787;28;20073;-62
2021/12/16 17:42:05;;;;;;;29.08;16.40;;;;;;;;;;5005729;28;20056;-63
2021/12/16 17:44:32;;;;;;;36.40;19.13;;;;;;;;;;5007087;28;20046;-63
2021/12/16 17:47:02;;;;;;;35.50;18.83;;;;;;;;;;5006324;28;20068;-63
2021/12/16 17:49:32;;;;;;;35.30;19.35;;;;;;;;;;5005624;28;20528;-63
2021/12/16 17:51:59;;;;;;;31.85;18.45;;;;;;;;;;5007102;28;20060;-62
2021/12/16 17:54:25;;;;;;;40.15;21.95;;;;;;;;;;5006923;28;20054;-62
2021/12/16 17:56:53;;;;;;;36.17;19.67;;;;;;;;;;5005727;28;20133;-62
2021/12/16 17:59:19;;;;;;;38.58;22.95;;;;;;;;;;5005780;28;20314;-62
2021/12/16 18:01:47;;;;;;;47.60;22.30;;;;;;;;;;5004768;28;20041;-62
2021/12/16 18:04:19;;;;;;;31.17;19.52;;;;;;;;;;5006500;28;20121;-61
2021/12/16 18:07:05;;;;;;;41.60;20.65;;;;;;;;;;5010875;28;20563;-61
2021/12/16 18:09:31;;;;;;;46.05;24.42;;;;;;;;;;5012078;28;20053;-61
2021/12/16 18:12:04;;;;;;;56.20;27.27;;;;;;;;;;5011155;28;20588;-61
2021/12/16 18:14:31;;;;;;;74.57;34.35;;;;;;;;;;5011019;28;20507;-63
2021/12/16 18:16:59;;;;;;;49.42;25.00;;;;;;;;;;5011997;28;20086;-63
2021/12/16 18:19:38;;;;;;;55.33;26.58;;;;;;;;;;4994430;28;20077;-63